Pagrindinis puslapis
METAR-TAF:

METAR-TAF

Oro uostai :

Arvidsjaur, Švedija

platuma: 65-35-25N, ilguma: 019-16-55E, Aukštis: 379 m

Dabartinis oras

Ataskaita buvo paskelbta 28 minutes, ne 05:50 UTC
Vėjas 8 kt iš Vakarų/Šiaurės Vakarų
Temperatūra -4°C
Drėgmė 74%
Slėgis 1013 hPa
Matomumas 10 km arba daugiau

METAR: ESNX 100550Z AUTO 29008KT 9999 FEW190/// M04/M08 Q1013

Laikas: 08:18 (06:18 UTC)

Prognozė

Ataskaita buvo paskelbta 48 minutes, ne 05:30 UTC
Prognozė galioja nuo 10 metu 06 UTC su 10 metu 08 UTC
Vėjas 7 kt iš Vakarų
Matomumas 10 km arba daugiau
nėra debesų žemiau 1500 m ir nėra kamuolinių lietaus debesų

TAF: ESNX 100530Z 1006/1008 28007KT CAVOK

Orai ataskaitas ir orų prognozės (METAR, TAF).

turimą stotys yra geltonos ir raudonos taškus žemėlapyje.

Perkelti pele per norėdami pamatyti stoties vardą.

Tada spustelėkite, norėdami matyti oro stebėjimo ir prognozės.

Norėdami pakeisti žemėlapį: spustelėkite ant žalios mygtukų su juodo kryžiaus žemyn,; žalią mygtuką su brūkšneliu, jei norite nutolinti; arba žalių rodyklių gretimoms žemėlapius.


METAR-TAF: